createdAt,value
2018-06-12T00:00:58.909Z,0.00
2018-06-12T00:01:58.913Z,0.00
2018-06-12T00:02:58.911Z,0.00
2018-06-12T00:03:58.921Z,0.00
2018-06-12T00:04:58.945Z,0.00
2018-06-12T00:05:58.934Z,0.00
2018-06-12T00:06:58.930Z,0.00
2018-06-12T00:07:58.934Z,0.00
2018-06-12T00:08:58.940Z,0.00
2018-06-12T00:09:58.937Z,0.00
2018-06-12T00:10:58.949Z,0.00
2018-06-12T00:11:58.963Z,0.00
2018-06-12T00:12:58.948Z,0.00
2018-06-12T00:13:58.956Z,0.00
2018-06-12T00:14:58.964Z,0.00
2018-06-12T00:15:58.979Z,0.00
2018-06-12T00:16:58.970Z,0.00
2018-06-12T00:17:58.972Z,0.00
2018-06-12T00:20:29.079Z,0.00
2018-06-12T00:21:28.629Z,0.00
2018-06-12T00:23:22.483Z,0.00
2018-06-12T00:24:23.051Z,0.00
2018-06-12T00:26:16.881Z,0.00
2018-06-12T00:27:15.454Z,0.00
2018-06-12T00:29:07.883Z,0.00
2018-06-12T00:30:08.850Z,0.00
2018-06-12T00:31:54.659Z,0.00
2018-06-12T00:32:54.665Z,0.00
2018-06-12T00:33:54.665Z,0.00
2018-06-12T00:34:54.693Z,0.00
2018-06-12T00:35:54.682Z,0.00
2018-06-12T00:36:54.691Z,0.00
2018-06-12T00:37:54.678Z,0.00
2018-06-12T00:38:54.682Z,0.00
2018-06-12T00:39:54.690Z,0.00
2018-06-12T00:40:54.689Z,0.00
2018-06-12T00:41:54.694Z,0.00
2018-06-12T00:42:54.701Z,0.00
2018-06-12T00:43:54.703Z,0.00
2018-06-12T00:44:54.698Z,0.00
2018-06-12T00:45:54.709Z,0.00
2018-06-12T00:46:54.713Z,0.00
2018-06-12T00:47:54.716Z,0.00
2018-06-12T00:48:54.730Z,0.00
2018-06-12T00:49:54.735Z,0.00
2018-06-12T00:50:54.751Z,0.00
2018-06-12T00:51:54.736Z,0.00
2018-06-12T00:52:54.741Z,0.00
2018-06-12T00:53:54.743Z,0.00
2018-06-12T00:54:54.756Z,0.00
2018-06-12T00:55:54.753Z,0.00
2018-06-12T00:56:54.771Z,0.00
2018-06-12T00:57:54.787Z,0.00
2018-06-12T00:58:54.760Z,0.00
2018-06-12T00:59:54.772Z,0.00
2018-06-12T01:00:54.770Z,0.00
2018-06-12T01:01:54.773Z,0.00
2018-06-12T01:02:54.774Z,0.00
2018-06-12T01:03:54.781Z,0.00
2018-06-12T01:04:54.783Z,0.00
2018-06-12T01:05:54.787Z,0.00
2018-06-12T01:06:54.792Z,0.00
2018-06-12T01:07:54.806Z,0.00
2018-06-12T01:08:54.795Z,0.00
2018-06-12T01:09:54.803Z,0.00
2018-06-12T01:10:54.805Z,0.00
2018-06-12T01:11:54.817Z,0.00
2018-06-12T01:12:54.816Z,0.00
2018-06-12T01:13:54.813Z,0.00
2018-06-12T01:14:54.818Z,0.00
2018-06-12T01:15:54.828Z,0.00
2018-06-12T01:16:54.832Z,0.00
2018-06-12T01:17:54.838Z,0.00
2018-06-12T01:18:54.836Z,0.00
2018-06-12T01:19:54.840Z,0.00
2018-06-12T01:20:54.843Z,0.00
2018-06-12T01:21:54.851Z,0.00
2018-06-12T01:22:54.850Z,0.00
2018-06-12T01:23:54.865Z,0.00
2018-06-12T01:24:54.883Z,0.00
2018-06-12T01:25:54.874Z,0.00
2018-06-12T01:26:54.874Z,0.00
2018-06-12T01:27:54.876Z,0.00
2018-06-12T01:28:54.891Z,0.00
2018-06-12T01:29:54.884Z,0.00
2018-06-12T01:30:54.890Z,0.00
2018-06-12T01:31:54.891Z,0.00
2018-06-12T01:32:54.923Z,0.00
2018-06-12T01:33:54.916Z,0.00
2018-06-12T01:34:54.935Z,0.00
2018-06-12T01:35:54.925Z,0.00
2018-06-12T01:36:54.943Z,0.00
2018-06-12T01:37:54.921Z,0.00
2018-06-12T01:38:54.936Z,0.00
2018-06-12T01:39:54.927Z,0.00
2018-06-12T01:40:54.920Z,0.00
2018-06-12T01:41:54.930Z,0.00
2018-06-12T01:42:54.926Z,0.00
2018-06-12T01:43:54.930Z,0.00
2018-06-12T01:44:54.947Z,0.00
2018-06-12T01:45:54.947Z,0.00
2018-06-12T01:46:54.955Z,0.00
2018-06-12T01:47:54.965Z,0.00
2018-06-12T01:48:54.956Z,0.00
2018-06-12T01:49:54.956Z,0.00
2018-06-12T01:50:54.988Z,0.00
2018-06-12T01:51:54.960Z,0.00
2018-06-12T01:52:54.976Z,0.00
2018-06-12T01:53:54.984Z,0.00
2018-06-12T01:54:54.979Z,0.00
2018-06-12T01:55:54.980Z,0.00
2018-06-12T01:56:54.999Z,0.00
2018-06-12T01:57:55.002Z,0.00
2018-06-12T01:58:54.990Z,0.00
2018-06-12T01:59:55.009Z,0.00
2018-06-12T02:00:55.003Z,0.00
2018-06-12T02:01:55.023Z,0.00
2018-06-12T02:02:55.030Z,0.00
2018-06-12T02:03:55.026Z,0.00
2018-06-12T02:04:55.030Z,0.00
2018-06-12T02:05:55.013Z,0.00
2018-06-12T02:06:55.034Z,0.00
2018-06-12T02:07:55.053Z,0.00
2018-06-12T02:08:55.026Z,0.00
2018-06-12T02:09:55.035Z,0.00
2018-06-12T02:10:55.041Z,0.00
2018-06-12T02:11:55.039Z,0.00
2018-06-12T02:12:55.037Z,0.00
2018-06-12T02:13:55.059Z,0.00
2018-06-12T02:14:55.054Z,0.00
2018-06-12T02:15:55.053Z,0.00
2018-06-12T02:16:55.058Z,0.00
2018-06-12T02:17:55.063Z,0.00
2018-06-12T02:18:55.080Z,0.00
2018-06-12T02:19:55.067Z,0.00
2018-06-12T02:20:55.080Z,0.00
2018-06-12T02:21:55.080Z,0.00
2018-06-12T02:22:55.076Z,0.00
2018-06-12T02:23:55.094Z,0.00
2018-06-12T02:24:55.090Z,0.00
2018-06-12T02:25:55.102Z,0.00
2018-06-12T02:26:55.105Z,0.00
2018-06-12T02:27:55.099Z,0.00
2018-06-12T02:28:55.112Z,0.00
2018-06-12T02:29:55.110Z,0.00
2018-06-12T02:30:55.109Z,0.00
2018-06-12T02:31:55.130Z,0.00
2018-06-12T02:32:55.129Z,0.00
2018-06-12T02:33:55.123Z,0.00
2018-06-12T02:34:55.137Z,0.00
2018-06-12T02:35:55.132Z,0.00
2018-06-12T02:36:55.137Z,0.00
2018-06-12T02:37:55.144Z,0.00
2018-06-12T02:38:55.146Z,0.00
2018-06-12T02:39:55.142Z,0.00
2018-06-12T02:40:55.150Z,0.00
2018-06-12T02:41:55.150Z,0.00
2018-06-12T02:42:55.148Z,0.00
2018-06-12T02:43:55.159Z,0.00
2018-06-12T02:44:55.161Z,0.00
2018-06-12T02:45:55.161Z,0.00
2018-06-12T02:46:55.172Z,0.00
2018-06-12T02:47:55.168Z,0.00
2018-06-12T02:48:55.179Z,0.00
2018-06-12T02:49:55.179Z,0.00
2018-06-12T02:50:55.180Z,0.00
2018-06-12T02:51:55.188Z,0.00
2018-06-12T02:52:55.192Z,0.00
2018-06-12T02:53:55.206Z,0.00
2018-06-12T02:54:55.197Z,0.00
2018-06-12T02:55:55.207Z,0.00
2018-06-12T02:56:55.205Z,0.00
2018-06-12T02:57:55.237Z,0.00
2018-06-12T02:58:55.215Z,0.00
2018-06-12T02:59:55.225Z,0.00
2018-06-12T03:00:55.224Z,0.00
2018-06-12T03:01:55.221Z,0.00
2018-06-12T03:02:55.233Z,0.00
2018-06-12T03:22:40.687Z,16.00
2018-06-12T03:23:40.675Z,20.00
2018-06-12T03:24:49.300Z,20.00
2018-06-12T03:26:34.088Z,20.00
2018-06-12T03:27:34.065Z,24.00
2018-06-12T03:28:34.070Z,28.00
2018-06-12T03:29:34.067Z,32.00
2018-06-12T03:30:34.072Z,32.00
2018-06-12T03:31:34.068Z,32.00
2018-06-12T03:32:34.069Z,32.00
2018-06-12T03:33:34.077Z,36.00
2018-06-12T03:34:34.084Z,36.00
2018-06-12T03:35:34.079Z,40.00
2018-06-12T03:36:34.081Z,40.00
2018-06-12T03:37:34.082Z,44.00
2018-06-12T03:38:34.092Z,44.00
2018-06-12T03:39:34.099Z,48.00
2018-06-12T03:40:34.091Z,52.00
2018-06-12T03:41:34.094Z,56.00
2018-06-12T03:42:34.090Z,56.00
2018-06-12T03:43:34.100Z,60.00
2018-06-12T03:44:34.106Z,64.00
2018-06-12T03:45:34.109Z,68.00
2018-06-12T03:46:34.113Z,72.00
2018-06-12T03:47:34.176Z,72.00
2018-06-12T03:48:34.139Z,76.00
2018-06-12T03:49:34.119Z,76.00
2018-06-12T03:50:34.130Z,88.00
2018-06-12T03:51:34.126Z,92.00
2018-06-12T03:52:34.160Z,96.00
2018-06-12T03:53:34.133Z,104.00
2018-06-12T03:54:34.136Z,112.00
2018-06-12T03:55:34.134Z,116.00
2018-06-12T03:56:34.138Z,116.00
2018-06-12T03:57:34.198Z,112.00
2018-06-12T03:58:34.157Z,104.00
2018-06-12T03:59:34.155Z,96.00
2018-06-12T04:00:34.151Z,88.00
2018-06-12T04:01:34.155Z,80.00
2018-06-12T04:02:34.162Z,72.00
2018-06-12T04:03:34.162Z,68.00
2018-06-12T04:04:34.170Z,64.00
2018-06-12T04:05:34.175Z,60.00
2018-06-12T04:06:34.172Z,52.00
2018-06-12T04:07:34.185Z,52.00
2018-06-12T04:08:34.186Z,44.00
2018-06-12T04:09:34.179Z,44.00
2018-06-12T04:10:34.185Z,44.00
2018-06-12T04:11:34.202Z,52.00
2018-06-12T04:12:34.203Z,56.00
2018-06-12T04:13:34.211Z,60.00
2018-06-12T04:14:34.220Z,68.00
2018-06-12T04:15:34.214Z,68.00
2018-06-12T04:16:34.218Z,72.00
2018-06-12T04:17:34.213Z,76.00
2018-06-12T04:18:34.213Z,84.00
2018-06-12T04:19:34.228Z,92.00
2018-06-12T04:20:34.264Z,100.00
2018-06-12T04:21:34.227Z,108.00
2018-06-12T04:22:34.227Z,116.00
2018-06-12T04:23:34.231Z,120.00
2018-06-12T04:24:34.237Z,132.00
2018-06-12T04:25:34.238Z,140.00
2018-06-12T04:26:34.248Z,144.00
2018-06-12T04:27:34.244Z,152.00
2018-06-12T04:28:34.259Z,156.00
2018-06-12T04:29:34.279Z,168.00
2018-06-12T04:30:34.258Z,184.00
2018-06-12T04:31:34.265Z,196.00
2018-06-12T04:32:34.269Z,196.00
2018-06-12T04:33:34.267Z,184.00
2018-06-12T04:34:34.273Z,168.00
2018-06-12T04:35:34.278Z,160.00
2018-06-12T04:36:34.282Z,152.00
2018-06-12T04:37:34.299Z,148.00
2018-06-12T04:38:34.285Z,144.00
2018-06-12T04:39:34.292Z,136.00
2018-06-12T04:40:34.313Z,120.00
2018-06-12T04:41:34.304Z,104.00
2018-06-12T04:42:34.329Z,96.00
2018-06-12T04:43:34.326Z,88.00
2018-06-12T04:44:34.306Z,88.00
2018-06-12T04:45:34.312Z,92.00
2018-06-12T04:46:34.324Z,100.00
2018-06-12T04:47:34.324Z,112.00
2018-06-12T04:48:34.336Z,120.00
2018-06-12T04:49:34.331Z,128.00
2018-06-12T04:50:34.342Z,136.00
2018-06-12T04:51:34.366Z,136.00
2018-06-12T04:52:34.336Z,132.00
2018-06-12T04:53:34.345Z,124.00
2018-06-12T04:54:34.353Z,116.00
2018-06-12T04:55:34.363Z,108.00
2018-06-12T04:56:34.353Z,92.00
2018-06-12T04:57:34.358Z,80.00
2018-06-12T04:58:34.367Z,72.00
2018-06-12T04:59:34.367Z,72.00
2018-06-12T05:00:34.363Z,72.00
2018-06-12T05:01:34.367Z,72.00
2018-06-12T05:02:34.370Z,72.00
2018-06-12T05:03:34.379Z,72.00
2018-06-12T05:04:34.381Z,76.00
2018-06-12T05:05:34.386Z,84.00
2018-06-12T05:06:34.387Z,92.00
2018-06-12T05:07:34.393Z,96.00
2018-06-12T05:08:34.396Z,104.00
2018-06-12T05:09:34.394Z,108.00
2018-06-12T05:10:34.449Z,116.00
2018-06-12T05:11:34.406Z,128.00
2018-06-12T05:12:34.413Z,132.00
2018-06-12T05:13:34.407Z,128.00
2018-06-12T05:14:34.417Z,124.00
2018-06-12T05:15:34.420Z,124.00
2018-06-12T05:16:34.426Z,124.00
2018-06-12T05:17:34.424Z,132.00
2018-06-12T05:18:34.427Z,136.00
2018-06-12T05:19:34.466Z,140.00
2018-06-12T05:20:34.442Z,140.00
2018-06-12T05:21:34.443Z,144.00
2018-06-12T05:22:34.445Z,140.00
2018-06-12T05:23:34.459Z,140.00
2018-06-12T05:24:34.464Z,144.00
2018-06-12T05:25:34.457Z,152.00
2018-06-12T05:26:34.460Z,144.00
2018-06-12T05:27:34.462Z,152.00
2018-06-12T05:28:34.461Z,156.00
2018-06-12T05:29:34.466Z,164.00
2018-06-12T05:30:34.473Z,172.00
2018-06-12T05:31:34.476Z,176.00
2018-06-12T05:32:34.477Z,168.00
2018-06-12T05:33:34.482Z,188.00
2018-06-12T05:34:34.484Z,192.00
2018-06-12T05:35:34.487Z,196.00
2018-06-12T05:36:34.492Z,200.00
2018-06-12T05:37:34.498Z,196.00
2018-06-12T05:38:34.507Z,204.00
2018-06-12T05:39:34.503Z,212.00
2018-06-12T05:40:34.512Z,228.00
2018-06-12T05:41:34.508Z,228.00
2018-06-12T05:42:34.514Z,224.00
2018-06-12T05:43:34.518Z,216.00
2018-06-12T05:44:34.521Z,200.00
2018-06-12T05:45:34.525Z,196.00
2018-06-12T05:46:34.542Z,192.00
2018-06-12T05:47:34.551Z,200.00
2018-06-12T05:48:34.551Z,220.00
2018-06-12T05:49:34.533Z,240.00
2018-06-12T05:50:43.679Z,268.00
2018-06-12T05:52:37.011Z,312.00
2018-06-12T05:53:27.951Z,328.00
2018-06-12T05:54:27.946Z,340.00
2018-06-12T05:55:27.947Z,344.00
2018-06-12T05:56:27.955Z,344.00
2018-06-12T05:57:27.959Z,328.00
2018-06-12T05:58:27.973Z,308.00
2018-06-12T05:59:27.964Z,292.00
2018-06-12T06:00:27.973Z,276.00
2018-06-12T06:01:27.968Z,268.00
2018-06-12T06:02:27.970Z,264.00
2018-06-12T06:03:28.003Z,260.00
2018-06-12T06:04:27.991Z,252.00
2018-06-12T06:05:27.985Z,244.00
2018-06-12T06:06:28.004Z,232.00
2018-06-12T06:07:28.003Z,224.00
2018-06-12T06:08:27.998Z,220.00
2018-06-12T06:09:27.995Z,228.00
2018-06-12T06:10:28.001Z,240.00
2018-06-12T06:11:28.009Z,264.00
2018-06-12T06:12:28.088Z,304.00
2018-06-12T06:13:28.017Z,336.00
2018-06-12T06:14:28.016Z,364.00
2018-06-12T06:15:28.018Z,372.00
2018-06-12T06:16:28.025Z,372.00
2018-06-12T06:17:28.035Z,356.00
2018-06-12T06:18:28.035Z,332.00
2018-06-12T06:19:28.030Z,308.00
2018-06-12T06:20:28.037Z,284.00
2018-06-12T06:21:28.044Z,256.00
2018-06-12T06:22:28.094Z,236.00
2018-06-12T06:23:28.046Z,232.00
2018-06-12T06:24:28.172Z,236.00
2018-06-12T06:25:28.056Z,248.00
2018-06-12T06:26:28.057Z,264.00
2018-06-12T06:27:28.066Z,268.00
2018-06-12T06:28:28.071Z,284.00
2018-06-12T06:29:28.068Z,276.00
2018-06-12T06:30:28.078Z,296.00
2018-06-12T06:31:28.089Z,316.00
2018-06-12T06:32:28.089Z,328.00
2018-06-12T06:33:28.090Z,324.00
2018-06-12T06:34:28.087Z,296.00
2018-06-12T06:35:28.086Z,264.00
2018-06-12T06:36:28.095Z,240.00
2018-06-12T06:37:28.099Z,356.00
2018-06-12T06:38:28.104Z,344.00
2018-06-12T06:39:28.101Z,316.00
2018-06-12T06:40:28.111Z,300.00
2018-06-12T06:41:28.114Z,308.00
2018-06-12T06:42:28.115Z,300.00
2018-06-12T06:43:28.120Z,312.00
2018-06-12T06:44:28.124Z,316.00
2018-06-12T06:45:28.129Z,304.00
2018-06-12T06:46:28.137Z,288.00
2018-06-12T06:47:28.134Z,272.00
2018-06-12T06:48:28.152Z,252.00
2018-06-12T06:49:28.143Z,240.00
2018-06-12T06:50:28.145Z,232.00
2018-06-12T06:51:28.147Z,228.00
2018-06-12T06:52:28.149Z,228.00
2018-06-12T06:53:28.153Z,232.00
2018-06-12T06:54:28.153Z,244.00
2018-06-12T06:55:28.163Z,256.00
2018-06-12T06:56:28.166Z,264.00
2018-06-12T06:57:28.170Z,264.00
2018-06-12T06:58:28.186Z,264.00
2018-06-12T06:59:28.172Z,264.00
2018-06-12T07:00:28.186Z,260.00
2018-06-12T07:01:28.180Z,260.00
2018-06-12T07:02:28.184Z,264.00
2018-06-12T07:03:28.199Z,272.00
2018-06-12T07:04:28.211Z,284.00
2018-06-12T07:05:28.195Z,300.00
2018-06-12T07:06:28.196Z,320.00
2018-06-12T07:07:28.199Z,228.00
2018-06-12T07:08:28.206Z,252.00
2018-06-12T07:09:28.203Z,284.00
2018-06-12T07:10:28.208Z,328.00
2018-06-12T07:11:28.216Z,376.00
2018-06-12T07:12:28.213Z,428.00
2018-06-12T07:13:28.218Z,480.00
2018-06-12T07:14:28.218Z,508.00
2018-06-12T07:15:28.224Z,524.00
2018-06-12T07:16:28.224Z,544.00
2018-06-12T07:17:28.229Z,540.00
2018-06-12T07:18:28.236Z,548.00
2018-06-12T07:19:28.237Z,584.00
2018-06-12T07:20:28.247Z,608.00
2018-06-12T07:21:28.240Z,656.00
2018-06-12T07:22:28.241Z,668.00
2018-06-12T07:23:28.249Z,648.00
2018-06-12T07:24:28.247Z,608.00
2018-06-12T07:25:28.256Z,552.00
2018-06-12T07:26:28.262Z,500.00
2018-06-12T07:27:28.261Z,460.00
2018-06-12T07:28:28.267Z,444.00
2018-06-12T07:29:28.271Z,448.00
2018-06-12T07:30:28.280Z,464.00
2018-06-12T07:31:28.276Z,456.00
2018-06-12T07:32:28.279Z,420.00
2018-06-12T07:33:28.279Z,388.00
2018-06-12T07:34:28.288Z,364.00
2018-06-12T07:35:28.295Z,348.00
2018-06-12T07:36:28.304Z,332.00
2018-06-12T07:37:28.336Z,312.00
2018-06-12T07:38:28.305Z,308.00
2018-06-12T07:39:28.319Z,332.00
2018-06-12T07:40:28.308Z,372.00
2018-06-12T07:41:28.316Z,396.00
2018-06-12T07:42:28.325Z,368.00
2018-06-12T07:43:28.342Z,360.00
2018-06-12T07:44:28.318Z,364.00
2018-06-12T07:45:28.323Z,396.00
2018-06-12T07:46:28.338Z,460.00
2018-06-12T07:47:28.336Z,528.00
2018-06-12T07:48:28.338Z,572.00
2018-06-12T07:49:28.341Z,640.00
2018-06-12T07:50:28.349Z,644.00
2018-06-12T07:51:28.350Z,632.00
2018-06-12T07:52:28.353Z,572.00
2018-06-12T07:53:28.354Z,492.00
2018-06-12T07:54:28.355Z,400.00
2018-06-12T07:55:28.360Z,352.00
2018-06-12T07:56:28.365Z,352.00
2018-06-12T07:57:28.370Z,388.00
2018-06-12T07:58:28.373Z,416.00
2018-06-12T07:59:28.377Z,440.00
2018-06-12T08:00:28.425Z,456.00
2018-06-12T08:01:28.383Z,464.00
2018-06-12T08:02:28.388Z,444.00
2018-06-12T08:03:28.392Z,416.00
2018-06-12T08:04:28.392Z,380.00
2018-06-12T08:05:28.403Z,340.00
2018-06-12T08:06:28.402Z,304.00
2018-06-12T08:07:28.407Z,284.00
2018-06-12T08:08:28.408Z,256.00
2018-06-12T08:09:28.415Z,244.00
2018-06-12T08:10:28.429Z,232.00
2018-06-12T08:11:28.433Z,236.00
2018-06-12T08:12:28.425Z,240.00
2018-06-12T08:13:28.448Z,240.00
2018-06-12T08:14:28.427Z,244.00
2018-06-12T08:15:28.431Z,256.00
2018-06-12T08:16:28.433Z,260.00
2018-06-12T08:17:28.449Z,264.00
2018-06-12T08:18:28.448Z,272.00
2018-06-12T08:19:28.445Z,276.00
2018-06-12T08:20:28.448Z,292.00
2018-06-12T08:21:28.450Z,308.00
2018-06-12T08:22:28.458Z,328.00
2018-06-12T08:23:28.465Z,336.00
2018-06-12T08:24:28.467Z,340.00
2018-06-12T08:25:28.476Z,348.00
2018-06-12T08:26:28.474Z,348.00
2018-06-12T08:27:28.478Z,344.00
2018-06-12T08:28:28.478Z,348.00
2018-06-12T08:29:28.480Z,356.00
2018-06-12T08:30:28.530Z,352.00
2018-06-12T08:31:28.495Z,340.00
2018-06-12T08:32:28.493Z,336.00
2018-06-12T08:33:28.499Z,328.00
2018-06-12T08:34:28.498Z,336.00
2018-06-12T08:35:28.514Z,332.00
2018-06-12T08:36:28.509Z,332.00
2018-06-12T08:37:28.511Z,332.00
2018-06-12T08:38:28.515Z,332.00
2018-06-12T08:39:28.518Z,332.00
2018-06-12T08:40:28.519Z,336.00
2018-06-12T08:41:28.543Z,328.00
2018-06-12T08:42:28.526Z,320.00
2018-06-12T08:43:28.535Z,328.00
2018-06-12T08:44:28.540Z,332.00
2018-06-12T08:45:28.538Z,328.00
2018-06-12T08:46:28.601Z,316.00
2018-06-12T08:47:28.541Z,312.00
2018-06-12T08:48:28.549Z,316.00
2018-06-12T08:49:28.557Z,324.00
2018-06-12T08:50:28.555Z,324.00
2018-06-12T08:51:28.562Z,320.00
2018-06-12T08:52:28.565Z,328.00
2018-06-12T08:53:28.568Z,328.00
2018-06-12T08:54:28.574Z,340.00
2018-06-12T08:55:28.588Z,336.00
2018-06-12T08:56:28.577Z,336.00
2018-06-12T08:57:28.575Z,328.00
2018-06-12T08:58:28.592Z,316.00
2018-06-12T08:59:28.595Z,312.00
2018-06-12T09:00:28.592Z,312.00
2018-06-12T09:01:28.602Z,324.00
2018-06-12T09:02:28.609Z,344.00
2018-06-12T09:03:28.601Z,364.00
2018-06-12T09:04:28.612Z,380.00
2018-06-12T09:05:28.611Z,388.00
2018-06-12T09:06:28.615Z,400.00
2018-06-12T09:07:28.617Z,412.00
2018-06-12T09:08:28.618Z,444.00
2018-06-12T09:09:28.630Z,476.00
2018-06-12T09:10:28.627Z,512.00
2018-06-12T09:11:28.631Z,536.00
2018-06-12T09:12:28.640Z,536.00
2018-06-12T09:13:28.633Z,532.00
2018-06-12T09:14:28.642Z,532.00
2018-06-12T09:15:28.645Z,508.00
2018-06-12T09:16:28.644Z,488.00
2018-06-12T09:17:28.665Z,488.00
2018-06-12T09:18:28.658Z,500.00
2018-06-12T09:19:28.677Z,500.00
2018-06-12T09:20:28.664Z,516.00
2018-06-12T09:21:28.672Z,532.00
2018-06-12T09:22:28.665Z,544.00
2018-06-12T09:23:28.671Z,576.00
2018-06-12T09:24:28.682Z,600.00
2018-06-12T09:25:28.684Z,612.00
2018-06-12T09:26:28.687Z,600.00
2018-06-12T09:27:28.705Z,540.00
2018-06-12T09:28:28.688Z,472.00
2018-06-12T09:29:28.691Z,448.00
2018-06-12T09:30:28.698Z,448.00
2018-06-12T09:31:28.703Z,432.00
2018-06-12T09:32:28.706Z,336.00
2018-06-12T09:33:28.718Z,276.00
2018-06-12T09:34:28.712Z,304.00
2018-06-12T09:35:28.715Z,364.00
2018-06-12T09:36:28.721Z,408.00
2018-06-12T09:37:28.723Z,464.00
2018-06-12T09:38:28.735Z,528.00
2018-06-12T09:39:28.731Z,532.00
2018-06-12T09:40:28.738Z,512.00
2018-06-12T09:41:28.735Z,472.00
2018-06-12T09:42:28.747Z,456.00
2018-06-12T09:43:28.745Z,536.00
2018-06-12T09:44:28.742Z,664.00
2018-06-12T09:45:28.751Z,752.00
2018-06-12T09:46:28.755Z,804.00
2018-06-12T09:47:28.758Z,772.00
2018-06-12T09:48:28.756Z,792.00
2018-06-12T09:49:28.766Z,1000.00
2018-06-12T09:50:28.765Z,816.00
2018-06-12T09:51:28.769Z,644.00
2018-06-12T09:52:28.768Z,756.00
2018-06-12T09:53:28.780Z,996.00
2018-06-12T09:54:28.782Z,1100.00
2018-06-12T09:55:28.784Z,1220.00
2018-06-12T09:56:28.785Z,1288.00
2018-06-12T09:57:28.783Z,1240.00
2018-06-12T09:58:28.790Z,1108.00
2018-06-12T09:59:28.799Z,948.00
2018-06-12T10:00:28.807Z,840.00
2018-06-12T10:01:28.809Z,840.00
2018-06-12T10:02:28.817Z,916.00
2018-06-12T10:03:28.817Z,972.00
2018-06-12T10:04:28.808Z,1048.00
2018-06-12T10:05:28.824Z,992.00
2018-06-12T10:06:28.819Z,876.00
2018-06-12T10:07:28.819Z,736.00
2018-06-12T10:08:28.830Z,652.00
2018-06-12T10:09:28.857Z,624.00
2018-06-12T10:10:28.846Z,636.00
2018-06-12T10:11:28.841Z,656.00
2018-06-12T10:12:28.844Z,676.00
2018-06-12T10:13:28.844Z,672.00
2018-06-12T10:14:28.862Z,672.00
2018-06-12T10:15:28.849Z,664.00
2018-06-12T10:16:28.856Z,648.00
2018-06-12T10:17:28.856Z,644.00
2018-06-12T10:18:28.860Z,644.00
2018-06-12T10:19:28.863Z,644.00
2018-06-12T10:20:28.880Z,652.00
2018-06-12T10:21:28.879Z,660.00
2018-06-12T10:22:28.879Z,668.00
2018-06-12T10:23:28.876Z,672.00
2018-06-12T10:24:28.886Z,668.00
2018-06-12T10:25:28.883Z,644.00
2018-06-12T10:26:28.895Z,628.00
2018-06-12T10:27:28.900Z,628.00
2018-06-12T10:28:28.902Z,604.00
2018-06-12T10:29:28.905Z,576.00
2018-06-12T10:30:28.917Z,548.00
2018-06-12T10:31:28.916Z,544.00
2018-06-12T10:32:28.913Z,528.00
2018-06-12T10:33:28.919Z,512.00
2018-06-12T10:34:28.922Z,516.00
2018-06-12T10:35:28.932Z,544.00
2018-06-12T10:36:28.935Z,576.00
2018-06-12T10:37:29.111Z,604.00
2018-06-12T10:38:28.949Z,644.00
2018-06-12T10:39:28.944Z,676.00
2018-06-12T10:40:28.943Z,680.00
2018-06-12T10:41:28.957Z,700.00
2018-06-12T10:42:28.980Z,712.00
2018-06-12T10:43:28.952Z,732.00
2018-06-12T10:44:28.956Z,760.00
2018-06-12T10:45:28.980Z,768.00
2018-06-12T10:46:28.975Z,780.00
2018-06-12T10:47:28.968Z,772.00
2018-06-12T10:48:28.972Z,752.00
2018-06-12T10:49:28.976Z,744.00
2018-06-12T10:50:28.981Z,760.00
2018-06-12T10:51:28.988Z,772.00
2018-06-12T10:52:28.994Z,768.00
2018-06-12T10:53:28.993Z,784.00
2018-06-12T10:54:28.999Z,784.00
2018-06-12T10:55:29.011Z,776.00
2018-06-12T10:56:29.028Z,812.00
2018-06-12T10:57:29.004Z,800.00
2018-06-12T10:58:29.010Z,760.00
2018-06-12T10:59:29.024Z,720.00
2018-06-12T11:00:29.020Z,692.00
2018-06-12T11:01:29.028Z,700.00
2018-06-12T11:02:29.028Z,744.00
2018-06-12T11:03:29.043Z,864.00
2018-06-12T11:04:29.031Z,1004.00
2018-06-12T11:05:29.037Z,1152.00
2018-06-12T11:06:29.040Z,1256.00
2018-06-12T11:07:29.048Z,1336.00
2018-06-12T11:08:29.055Z,1400.00
2018-06-12T11:09:29.060Z,1436.00
2018-06-12T11:10:37.701Z,1420.00
2018-06-12T11:12:22.467Z,1444.00
2018-06-12T11:13:22.459Z,1528.00
2018-06-12T11:14:22.462Z,1548.00
2018-06-12T11:15:22.470Z,1556.00
2018-06-12T11:16:22.473Z,1552.00
2018-06-12T11:17:22.470Z,1536.00
2018-06-12T11:18:22.490Z,1440.00
2018-06-12T11:19:22.482Z,1392.00
2018-06-12T11:20:22.483Z,1356.00
2018-06-12T11:21:22.486Z,1280.00
2018-06-12T11:22:22.496Z,1120.00
2018-06-12T11:23:22.499Z,900.00
2018-06-12T11:24:22.497Z,696.00
2018-06-12T11:25:22.512Z,616.00
2018-06-12T11:26:22.524Z,624.00
2018-06-12T11:27:22.518Z,652.00
2018-06-12T11:28:22.520Z,620.00
2018-06-12T11:29:22.523Z,608.00
2018-06-12T11:30:22.526Z,632.00
2018-06-12T11:31:22.533Z,688.00
2018-06-12T11:32:22.543Z,780.00
2018-06-12T11:33:22.540Z,888.00
2018-06-12T11:34:22.545Z,976.00
2018-06-12T11:35:22.552Z,1020.00
2018-06-12T11:36:22.551Z,1044.00
2018-06-12T11:37:22.560Z,1056.00
2018-06-12T11:38:22.576Z,1060.00
2018-06-12T11:39:22.587Z,1044.00
2018-06-12T11:40:22.568Z,1012.00
2018-06-12T11:41:22.571Z,956.00
2018-06-12T11:42:22.579Z,840.00
2018-06-12T11:43:22.580Z,784.00
2018-06-12T11:44:22.592Z,776.00
2018-06-12T11:45:22.586Z,772.00
2018-06-12T11:46:22.597Z,760.00
2018-06-12T11:47:22.602Z,740.00
2018-06-12T11:48:22.600Z,728.00
2018-06-12T11:49:22.608Z,720.00
2018-06-12T11:50:22.612Z,700.00
2018-06-12T11:51:22.617Z,664.00
2018-06-12T11:52:22.618Z,620.00
2018-06-12T11:53:22.618Z,576.00
2018-06-12T11:54:22.632Z,548.00
2018-06-12T11:55:22.638Z,532.00
2018-06-12T11:56:22.640Z,520.00
2018-06-12T11:57:22.648Z,504.00
2018-06-12T11:58:22.645Z,476.00
2018-06-12T11:59:22.643Z,456.00
2018-06-12T12:00:22.648Z,460.00
2018-06-12T12:01:22.653Z,480.00
2018-06-12T12:02:22.659Z,540.00
2018-06-12T12:03:22.670Z,616.00
2018-06-12T12:04:22.694Z,704.00
2018-06-12T12:05:22.680Z,792.00
2018-06-12T12:06:22.682Z,880.00
2018-06-12T12:07:22.683Z,968.00
2018-06-12T12:08:22.685Z,1056.00
2018-06-12T12:09:22.694Z,1116.00
2018-06-12T12:10:22.694Z,1140.00
2018-06-12T12:11:22.702Z,1112.00
2018-06-12T12:12:22.713Z,1056.00
2018-06-12T12:13:22.704Z,956.00
2018-06-12T12:14:22.713Z,848.00
2018-06-12T12:15:22.714Z,716.00
2018-06-12T12:16:22.715Z,624.00
2018-06-12T12:17:22.716Z,588.00
2018-06-12T12:18:22.727Z,624.00
2018-06-12T12:19:22.721Z,648.00
2018-06-12T12:20:22.741Z,648.00
2018-06-12T12:21:22.737Z,636.00
2018-06-12T12:22:22.738Z,604.00
2018-06-12T12:23:22.744Z,604.00
2018-06-12T12:24:22.744Z,604.00
2018-06-12T12:25:22.755Z,616.00
2018-06-12T12:26:22.760Z,632.00
2018-06-12T12:27:22.754Z,660.00
2018-06-12T12:28:22.766Z,680.00
2018-06-12T12:29:22.779Z,712.00
2018-06-12T12:30:22.777Z,692.00
2018-06-12T12:31:22.775Z,656.00
2018-06-12T12:32:22.797Z,620.00
2018-06-12T12:33:22.793Z,604.00
2018-06-12T12:34:22.792Z,604.00
2018-06-12T12:35:22.786Z,628.00
2018-06-12T12:36:22.797Z,636.00
2018-06-12T12:37:22.801Z,624.00
2018-06-12T12:38:22.805Z,604.00
2018-06-12T12:39:22.805Z,572.00
2018-06-12T12:40:22.809Z,548.00
2018-06-12T12:41:22.817Z,532.00
2018-06-12T12:42:22.816Z,520.00
2018-06-12T12:43:22.820Z,528.00
2018-06-12T12:44:22.825Z,540.00
2018-06-12T12:45:22.827Z,560.00
2018-06-12T12:46:22.851Z,584.00
2018-06-12T12:47:22.842Z,600.00
2018-06-12T12:48:22.863Z,636.00
2018-06-12T12:49:22.849Z,696.00
2018-06-12T12:50:22.854Z,772.00
2018-06-12T12:51:22.858Z,896.00
2018-06-12T12:52:22.858Z,1064.00
2018-06-12T12:53:22.867Z,1236.00
2018-06-12T12:54:22.871Z,1296.00
2018-06-12T12:55:22.869Z,1236.00
2018-06-12T12:56:22.883Z,1120.00
2018-06-12T12:57:22.880Z,992.00
2018-06-12T12:58:22.889Z,872.00
2018-06-12T12:59:22.883Z,760.00
2018-06-12T13:00:22.903Z,664.00
2018-06-12T13:01:22.896Z,588.00
2018-06-12T13:02:22.901Z,536.00
2018-06-12T13:03:22.902Z,496.00
2018-06-12T13:04:22.911Z,484.00
2018-06-12T13:05:22.919Z,488.00
2018-06-12T13:06:22.918Z,504.00
2018-06-12T13:07:22.930Z,536.00